sensor_id;sensor_type;location;lat;lon;timestamp;P1;durP1;ratioP1;P2;durP2;ratioP2
18793;SDS011;29610;49.022;12.114;2024-03-02T00:01:55;80.20;;;30.17;;
18793;SDS011;29610;49.022;12.114;2024-03-02T00:04:23;77.23;;;29.77;;
18793;SDS011;29610;49.022;12.114;2024-03-02T00:06:52;98.13;;;32.37;;
18793;SDS011;29610;49.022;12.114;2024-03-02T00:09:23;82.23;;;31.53;;
18793;SDS011;29610;49.022;12.114;2024-03-02T00:11:52;92.83;;;31.37;;
18793;SDS011;29610;49.022;12.114;2024-03-02T00:14:21;73.83;;;29.97;;
18793;SDS011;29610;49.022;12.114;2024-03-02T00:16:50;80.37;;;29.30;;
18793;SDS011;29610;49.022;12.114;2024-03-02T00:19:19;78.20;;;27.93;;
18793;SDS011;29610;49.022;12.114;2024-03-02T00:21:48;75.10;;;30.77;;
18793;SDS011;29610;49.022;12.114;2024-03-02T00:24:18;66.97;;;27.37;;
18793;SDS011;29610;49.022;12.114;2024-03-02T00:26:56;62.50;;;27.83;;
18793;SDS011;29610;49.022;12.114;2024-03-02T00:29:25;59.90;;;26.37;;
18793;SDS011;29610;49.022;12.114;2024-03-02T00:31:55;64.40;;;27.07;;
18793;SDS011;29610;49.022;12.114;2024-03-02T00:34:23;70.53;;;28.27;;
18793;SDS011;29610;49.022;12.114;2024-03-02T00:36:52;68.20;;;27.97;;
18793;SDS011;29610;49.022;12.114;2024-03-02T00:39:23;64.50;;;26.87;;
18793;SDS011;29610;49.022;12.114;2024-03-02T00:41:51;64.57;;;27.10;;
18793;SDS011;29610;49.022;12.114;2024-03-02T00:44:19;67.63;;;28.40;;
18793;SDS011;29610;49.022;12.114;2024-03-02T00:46:56;64.83;;;27.93;;
18793;SDS011;29610;49.022;12.114;2024-03-02T00:49:26;62.27;;;26.57;;
18793;SDS011;29610;49.022;12.114;2024-03-02T00:51:54;67.27;;;27.13;;
18793;SDS011;29610;49.022;12.114;2024-03-02T00:54:25;60.63;;;27.00;;
18793;SDS011;29610;49.022;12.114;2024-03-02T00:56:55;71.00;;;29.07;;
18793;SDS011;29610;49.022;12.114;2024-03-02T00:59:25;66.80;;;25.23;;
18793;SDS011;29610;49.022;12.114;2024-03-02T01:01:53;67.67;;;27.63;;
18793;SDS011;29610;49.022;12.114;2024-03-02T01:04:21;66.30;;;26.33;;
18793;SDS011;29610;49.022;12.114;2024-03-02T01:06:50;65.07;;;25.63;;
18793;SDS011;29610;49.022;12.114;2024-03-02T01:09:18;64.57;;;25.57;;
18793;SDS011;29610;49.022;12.114;2024-03-02T01:11:48;56.37;;;26.10;;
18793;SDS011;29610;49.022;12.114;2024-03-02T01:14:16;60.53;;;24.33;;
18793;SDS011;29610;49.022;12.114;2024-03-02T01:16:45;63.47;;;25.20;;
18793;SDS011;29610;49.022;12.114;2024-03-02T01:19:13;60.20;;;25.10;;
18793;SDS011;29610;49.022;12.114;2024-03-02T01:21:41;61.47;;;26.60;;
18793;SDS011;29610;49.022;12.114;2024-03-02T01:24:09;67.47;;;25.67;;
18793;SDS011;29610;49.022;12.114;2024-03-02T01:26:39;64.40;;;27.10;;
18793;SDS011;29610;49.022;12.114;2024-03-02T01:29:09;65.47;;;25.47;;
18793;SDS011;29610;49.022;12.114;2024-03-02T01:31:37;62.00;;;26.67;;
18793;SDS011;29610;49.022;12.114;2024-03-02T01:34:08;68.67;;;27.20;;
18793;SDS011;29610;49.022;12.114;2024-03-02T01:36:36;64.20;;;26.60;;
18793;SDS011;29610;49.022;12.114;2024-03-02T01:39:05;77.53;;;28.33;;
18793;SDS011;29610;49.022;12.114;2024-03-02T01:41:35;66.57;;;26.87;;
18793;SDS011;29610;49.022;12.114;2024-03-02T01:44:04;69.50;;;26.73;;
18793;SDS011;29610;49.022;12.114;2024-03-02T01:46:33;69.43;;;28.67;;
18793;SDS011;29610;49.022;12.114;2024-03-02T01:49:02;74.00;;;28.83;;
18793;SDS011;29610;49.022;12.114;2024-03-02T01:51:31;72.93;;;27.23;;
18793;SDS011;29610;49.022;12.114;2024-03-02T01:53:59;72.87;;;27.27;;
18793;SDS011;29610;49.022;12.114;2024-03-02T01:56:27;66.57;;;27.70;;
18793;SDS011;29610;49.022;12.114;2024-03-02T01:58:56;71.23;;;26.80;;
18793;SDS011;29610;49.022;12.114;2024-03-02T02:01:24;65.87;;;28.80;;
18793;SDS011;29610;49.022;12.114;2024-03-02T02:03:54;71.43;;;27.00;;
18793;SDS011;29610;49.022;12.114;2024-03-02T02:06:22;85.30;;;28.40;;
18793;SDS011;29610;49.022;12.114;2024-03-02T02:08:51;72.43;;;28.17;;
18793;SDS011;29610;49.022;12.114;2024-03-02T02:11:19;85.93;;;30.97;;
18793;SDS011;29610;49.022;12.114;2024-03-02T02:13:48;89.53;;;30.80;;
18793;SDS011;29610;49.022;12.114;2024-03-02T02:16:16;78.50;;;27.33;;
18793;SDS011;29610;49.022;12.114;2024-03-02T02:18:45;77.07;;;27.87;;
18793;SDS011;29610;49.022;12.114;2024-03-02T02:21:15;91.60;;;32.33;;
18793;SDS011;29610;49.022;12.114;2024-03-02T02:23:45;81.60;;;29.57;;
18793;SDS011;29610;49.022;12.114;2024-03-02T02:26:14;92.10;;;31.27;;
18793;SDS011;29610;49.022;12.114;2024-03-02T02:28:43;98.17;;;32.00;;
18793;SDS011;29610;49.022;12.114;2024-03-02T02:31:13;104.87;;;33.10;;
18793;SDS011;29610;49.022;12.114;2024-03-02T02:33:42;96.60;;;32.50;;
18793;SDS011;29610;49.022;12.114;2024-03-02T02:36:10;105.27;;;35.03;;
18793;SDS011;29610;49.022;12.114;2024-03-02T02:38:40;107.60;;;34.97;;
18793;SDS011;29610;49.022;12.114;2024-03-02T02:41:16;117.17;;;36.10;;
18793;SDS011;29610;49.022;12.114;2024-03-02T02:43:44;112.07;;;34.37;;
18793;SDS011;29610;49.022;12.114;2024-03-02T02:46:12;112.27;;;34.90;;
18793;SDS011;29610;49.022;12.114;2024-03-02T02:48:40;103.40;;;36.13;;
18793;SDS011;29610;49.022;12.114;2024-03-02T02:51:09;129.90;;;36.20;;
18793;SDS011;29610;49.022;12.114;2024-03-02T02:53:37;119.40;;;35.40;;
18793;SDS011;29610;49.022;12.114;2024-03-02T02:56:08;101.10;;;34.63;;
18793;SDS011;29610;49.022;12.114;2024-03-02T02:58:36;125.23;;;35.20;;
18793;SDS011;29610;49.022;12.114;2024-03-02T03:01:05;112.87;;;36.30;;
18793;SDS011;29610;49.022;12.114;2024-03-02T03:03:34;113.43;;;35.93;;
18793;SDS011;29610;49.022;12.114;2024-03-02T03:06:02;93.27;;;33.33;;
18793;SDS011;29610;49.022;12.114;2024-03-02T03:08:31;97.33;;;33.83;;
18793;SDS011;29610;49.022;12.114;2024-03-02T03:10:59;110.83;;;34.30;;
18793;SDS011;29610;49.022;12.114;2024-03-02T03:13:29;126.13;;;37.00;;
18793;SDS011;29610;49.022;12.114;2024-03-02T03:15:57;120.93;;;37.07;;
18793;SDS011;29610;49.022;12.114;2024-03-02T03:18:25;120.10;;;37.40;;
18793;SDS011;29610;49.022;12.114;2024-03-02T03:20:54;124.07;;;34.97;;
18793;SDS011;29610;49.022;12.114;2024-03-02T03:23:22;120.53;;;38.80;;
18793;SDS011;29610;49.022;12.114;2024-03-02T03:25:52;106.50;;;35.80;;
18793;SDS011;29610;49.022;12.114;2024-03-02T03:28:20;114.53;;;37.60;;
18793;SDS011;29610;49.022;12.114;2024-03-02T03:30:49;125.50;;;37.97;;
18793;SDS011;29610;49.022;12.114;2024-03-02T03:33:18;124.13;;;40.10;;
18793;SDS011;29610;49.022;12.114;2024-03-02T03:35:46;132.70;;;39.67;;
18793;SDS011;29610;49.022;12.114;2024-03-02T03:38:14;136.83;;;36.00;;
18793;SDS011;29610;49.022;12.114;2024-03-02T03:40:43;137.93;;;40.07;;
18793;SDS011;29610;49.022;12.114;2024-03-02T03:43:11;105.70;;;36.90;;
18793;SDS011;29610;49.022;12.114;2024-03-02T03:45:39;109.53;;;35.20;;
18793;SDS011;29610;49.022;12.114;2024-03-02T03:48:09;126.23;;;34.17;;
18793;SDS011;29610;49.022;12.114;2024-03-02T03:50:38;127.20;;;37.20;;
18793;SDS011;29610;49.022;12.114;2024-03-02T03:53:06;118.70;;;37.47;;
18793;SDS011;29610;49.022;12.114;2024-03-02T03:55:35;116.03;;;36.50;;
18793;SDS011;29610;49.022;12.114;2024-03-02T03:58:03;155.90;;;39.43;;
18793;SDS011;29610;49.022;12.114;2024-03-02T04:00:31;123.13;;;36.70;;
18793;SDS011;29610;49.022;12.114;2024-03-02T04:03:00;121.63;;;36.13;;
18793;SDS011;29610;49.022;12.114;2024-03-02T04:05:30;134.80;;;37.63;;
18793;SDS011;29610;49.022;12.114;2024-03-02T04:07:58;113.63;;;36.10;;
18793;SDS011;29610;49.022;12.114;2024-03-02T04:10:27;110.63;;;33.90;;
18793;SDS011;29610;49.022;12.114;2024-03-02T04:12:56;108.30;;;35.63;;
18793;SDS011;29610;49.022;12.114;2024-03-02T04:15:25;120.30;;;36.10;;
18793;SDS011;29610;49.022;12.114;2024-03-02T04:17:53;109.63;;;35.97;;
18793;SDS011;29610;49.022;12.114;2024-03-02T04:20:22;95.80;;;33.17;;
18793;SDS011;29610;49.022;12.114;2024-03-02T04:22:51;101.77;;;35.17;;
18793;SDS011;29610;49.022;12.114;2024-03-02T04:25:20;97.43;;;35.30;;
18793;SDS011;29610;49.022;12.114;2024-03-02T04:27:48;110.60;;;35.20;;
18793;SDS011;29610;49.022;12.114;2024-03-02T04:30:16;124.07;;;36.27;;
18793;SDS011;29610;49.022;12.114;2024-03-02T04:32:45;148.50;;;39.83;;
18793;SDS011;29610;49.022;12.114;2024-03-02T04:35:14;137.70;;;38.17;;
18793;SDS011;29610;49.022;12.114;2024-03-02T04:37:42;114.10;;;37.07;;
18793;SDS011;29610;49.022;12.114;2024-03-02T04:40:12;132.40;;;35.57;;
18793;SDS011;29610;49.022;12.114;2024-03-02T04:42:41;125.33;;;37.97;;
18793;SDS011;29610;49.022;12.114;2024-03-02T04:45:09;112.67;;;34.50;;
18793;SDS011;29610;49.022;12.114;2024-03-02T04:47:38;124.00;;;38.17;;
18793;SDS011;29610;49.022;12.114;2024-03-02T04:50:07;120.17;;;36.90;;
18793;SDS011;29610;49.022;12.114;2024-03-02T04:52:36;114.43;;;36.03;;
18793;SDS011;29610;49.022;12.114;2024-03-02T04:55:05;153.23;;;41.77;;
18793;SDS011;29610;49.022;12.114;2024-03-02T04:57:47;113.47;;;39.50;;
18793;SDS011;29610;49.022;12.114;2024-03-02T05:00:17;110.87;;;35.60;;
18793;SDS011;29610;49.022;12.114;2024-03-02T05:02:46;113.13;;;37.10;;
18793;SDS011;29610;49.022;12.114;2024-03-02T05:05:14;129.50;;;37.40;;
18793;SDS011;29610;49.022;12.114;2024-03-02T05:07:42;123.13;;;36.77;;
18793;SDS011;29610;49.022;12.114;2024-03-02T05:10:11;123.23;;;36.97;;
18793;SDS011;29610;49.022;12.114;2024-03-02T05:12:39;112.13;;;37.47;;
18793;SDS011;29610;49.022;12.114;2024-03-02T05:15:24;122.37;;;37.87;;
18793;SDS011;29610;49.022;12.114;2024-03-02T05:17:53;109.30;;;33.63;;
18793;SDS011;29610;49.022;12.114;2024-03-02T05:20:23;111.33;;;34.83;;
18793;SDS011;29610;49.022;12.114;2024-03-02T05:22:54;105.13;;;35.80;;
18793;SDS011;29610;49.022;12.114;2024-03-02T05:25:22;113.23;;;36.07;;
18793;SDS011;29610;49.022;12.114;2024-03-02T05:27:50;124.23;;;38.30;;
18793;SDS011;29610;49.022;12.114;2024-03-02T05:30:19;122.57;;;35.63;;
18793;SDS011;29610;49.022;12.114;2024-03-02T05:32:48;121.57;;;36.63;;
18793;SDS011;29610;49.022;12.114;2024-03-02T05:35:17;129.43;;;36.53;;
18793;SDS011;29610;49.022;12.114;2024-03-02T05:37:45;120.40;;;37.23;;
18793;SDS011;29610;49.022;12.114;2024-03-02T05:40:13;129.63;;;38.27;;
18793;SDS011;29610;49.022;12.114;2024-03-02T05:42:42;106.93;;;36.90;;
18793;SDS011;29610;49.022;12.114;2024-03-02T05:45:10;111.87;;;37.83;;
18793;SDS011;29610;49.022;12.114;2024-03-02T05:47:39;117.67;;;36.00;;
18793;SDS011;29610;49.022;12.114;2024-03-02T05:50:09;122.53;;;35.10;;
18793;SDS011;29610;49.022;12.114;2024-03-02T05:52:37;118.63;;;36.73;;
18793;SDS011;29610;49.022;12.114;2024-03-02T05:55:06;131.97;;;38.20;;
18793;SDS011;29610;49.022;12.114;2024-03-02T05:57:35;110.37;;;35.13;;
18793;SDS011;29610;49.022;12.114;2024-03-02T06:00:16;96.33;;;33.93;;
18793;SDS011;29610;49.022;12.114;2024-03-02T06:02:45;114.13;;;37.53;;
18793;SDS011;29610;49.022;12.114;2024-03-02T06:05:14;125.20;;;38.53;;
18793;SDS011;29610;49.022;12.114;2024-03-02T06:07:44;115.00;;;36.53;;
18793;SDS011;29610;49.022;12.114;2024-03-02T06:10:12;140.80;;;40.87;;
18793;SDS011;29610;49.022;12.114;2024-03-02T06:12:41;115.30;;;38.10;;
18793;SDS011;29610;49.022;12.114;2024-03-02T06:15:09;120.20;;;35.80;;
18793;SDS011;29610;49.022;12.114;2024-03-02T06:17:38;119.90;;;38.43;;
18793;SDS011;29610;49.022;12.114;2024-03-02T06:20:06;115.67;;;36.63;;
18793;SDS011;29610;49.022;12.114;2024-03-02T06:22:38;120.53;;;37.27;;
18793;SDS011;29610;49.022;12.114;2024-03-02T06:25:06;122.67;;;39.30;;
18793;SDS011;29610;49.022;12.114;2024-03-02T06:27:35;125.83;;;39.63;;
18793;SDS011;29610;49.022;12.114;2024-03-02T06:30:04;109.07;;;36.53;;
18793;SDS011;29610;49.022;12.114;2024-03-02T06:32:33;115.60;;;38.43;;
18793;SDS011;29610;49.022;12.114;2024-03-02T06:35:02;109.17;;;37.50;;
18793;SDS011;29610;49.022;12.114;2024-03-02T06:37:32;123.73;;;36.50;;
18793;SDS011;29610;49.022;12.114;2024-03-02T06:40:01;111.37;;;35.30;;
18793;SDS011;29610;49.022;12.114;2024-03-02T06:42:30;110.53;;;36.10;;
18793;SDS011;29610;49.022;12.114;2024-03-02T06:45:00;126.47;;;38.17;;
18793;SDS011;29610;49.022;12.114;2024-03-02T06:47:30;123.60;;;39.17;;
18793;SDS011;29610;49.022;12.114;2024-03-02T06:49:58;147.57;;;40.67;;
18793;SDS011;29610;49.022;12.114;2024-03-02T06:52:26;136.50;;;40.40;;
18793;SDS011;29610;49.022;12.114;2024-03-02T07:07:48;120.27;;;39.77;;
18793;SDS011;29610;49.022;12.114;2024-03-02T07:10:16;121.10;;;39.97;;
18793;SDS011;29610;49.022;12.114;2024-03-02T07:12:45;117.20;;;38.57;;
18793;SDS011;29610;49.022;12.114;2024-03-02T07:15:13;119.30;;;38.20;;
18793;SDS011;29610;49.022;12.114;2024-03-02T07:18:10;101.43;;;38.53;;
18793;SDS011;29610;49.022;12.114;2024-03-02T07:20:39;114.07;;;37.83;;
18793;SDS011;29610;49.022;12.114;2024-03-02T07:23:09;112.27;;;33.30;;
18793;SDS011;29610;49.022;12.114;2024-03-02T07:25:37;110.13;;;38.83;;
18793;SDS011;29610;49.022;12.114;2024-03-02T07:28:08;100.97;;;35.93;;
18793;SDS011;29610;49.022;12.114;2024-03-02T07:30:37;101.13;;;34.53;;
18793;SDS011;29610;49.022;12.114;2024-03-02T07:33:06;106.90;;;36.00;;
18793;SDS011;29610;49.022;12.114;2024-03-02T07:35:34;96.40;;;35.77;;
18793;SDS011;29610;49.022;12.114;2024-03-02T07:38:03;101.57;;;34.60;;
18793;SDS011;29610;49.022;12.114;2024-03-02T07:40:32;102.10;;;35.83;;
18793;SDS011;29610;49.022;12.114;2024-03-02T07:43:01;94.50;;;35.43;;
18793;SDS011;29610;49.022;12.114;2024-03-02T07:45:29;94.83;;;34.20;;
18793;SDS011;29610;49.022;12.114;2024-03-02T07:47:57;101.83;;;34.60;;
18793;SDS011;29610;49.022;12.114;2024-03-02T07:50:25;97.10;;;34.00;;
18793;SDS011;29610;49.022;12.114;2024-03-02T07:52:55;108.47;;;38.20;;
18793;SDS011;29610;49.022;12.114;2024-03-02T07:55:23;108.83;;;39.17;;
18793;SDS011;29610;49.022;12.114;2024-03-02T07:57:53;120.17;;;40.07;;
18793;SDS011;29610;49.022;12.114;2024-03-02T08:00:21;121.37;;;36.40;;
18793;SDS011;29610;49.022;12.114;2024-03-02T08:02:50;104.73;;;35.30;;
18793;SDS011;29610;49.022;12.114;2024-03-02T08:05:19;114.03;;;39.53;;
18793;SDS011;29610;49.022;12.114;2024-03-02T08:07:48;121.30;;;39.67;;
18793;SDS011;29610;49.022;12.114;2024-03-02T08:10:19;105.83;;;38.67;;
18793;SDS011;29610;49.022;12.114;2024-03-02T08:12:47;99.97;;;36.60;;
18793;SDS011;29610;49.022;12.114;2024-03-02T08:15:16;107.40;;;38.00;;
18793;SDS011;29610;49.022;12.114;2024-03-02T08:17:45;104.90;;;38.43;;
18793;SDS011;29610;49.022;12.114;2024-03-02T08:20:15;102.33;;;36.23;;
18793;SDS011;29610;49.022;12.114;2024-03-02T08:22:45;95.63;;;37.00;;
18793;SDS011;29610;49.022;12.114;2024-03-02T08:25:14;91.53;;;37.93;;
18793;SDS011;29610;49.022;12.114;2024-03-02T08:27:43;96.93;;;34.97;;
18793;SDS011;29610;49.022;12.114;2024-03-02T08:30:12;88.70;;;34.50;;
18793;SDS011;29610;49.022;12.114;2024-03-02T08:32:42;74.90;;;31.73;;
18793;SDS011;29610;49.022;12.114;2024-03-02T08:35:11;76.80;;;30.40;;
18793;SDS011;29610;49.022;12.114;2024-03-02T08:37:40;68.50;;;31.70;;
18793;SDS011;29610;49.022;12.114;2024-03-02T08:40:10;67.97;;;30.20;;
18793;SDS011;29610;49.022;12.114;2024-03-02T08:42:43;66.73;;;30.90;;
18793;SDS011;29610;49.022;12.114;2024-03-02T08:45:12;69.40;;;29.87;;
18793;SDS011;29610;49.022;12.114;2024-03-02T08:47:40;64.50;;;28.53;;
18793;SDS011;29610;49.022;12.114;2024-03-02T08:50:10;66.60;;;27.90;;
18793;SDS011;29610;49.022;12.114;2024-03-02T08:52:38;64.17;;;30.33;;
18793;SDS011;29610;49.022;12.114;2024-03-02T08:55:07;62.27;;;28.47;;
18793;SDS011;29610;49.022;12.114;2024-03-02T08:57:37;70.43;;;28.00;;
18793;SDS011;29610;49.022;12.114;2024-03-02T09:00:06;63.90;;;27.47;;
18793;SDS011;29610;49.022;12.114;2024-03-02T09:02:36;65.27;;;28.33;;
18793;SDS011;29610;49.022;12.114;2024-03-02T09:05:06;63.47;;;29.53;;
18793;SDS011;29610;49.022;12.114;2024-03-02T09:07:36;63.47;;;27.10;;
18793;SDS011;29610;49.022;12.114;2024-03-02T09:10:05;56.27;;;26.43;;
18793;SDS011;29610;49.022;12.114;2024-03-02T09:12:34;59.77;;;27.27;;
18793;SDS011;29610;49.022;12.114;2024-03-02T09:15:05;57.37;;;28.00;;
18793;SDS011;29610;49.022;12.114;2024-03-02T09:17:34;58.77;;;28.50;;
18793;SDS011;29610;49.022;12.114;2024-03-02T09:20:02;58.20;;;27.20;;
18793;SDS011;29610;49.022;12.114;2024-03-02T09:22:33;57.93;;;26.97;;
18793;SDS011;29610;49.022;12.114;2024-03-02T09:25:01;50.33;;;24.83;;
18793;SDS011;29610;49.022;12.114;2024-03-02T09:27:30;53.27;;;28.33;;
18793;SDS011;29610;49.022;12.114;2024-03-02T09:29:58;49.27;;;25.83;;
18793;SDS011;29610;49.022;12.114;2024-03-02T09:32:26;56.73;;;27.43;;
18793;SDS011;29610;49.022;12.114;2024-03-02T09:34:55;55.80;;;25.97;;
18793;SDS011;29610;49.022;12.114;2024-03-02T09:37:24;50.17;;;24.97;;
18793;SDS011;29610;49.022;12.114;2024-03-02T09:39:54;52.43;;;26.53;;
18793;SDS011;29610;49.022;12.114;2024-03-02T09:42:23;50.07;;;25.47;;
18793;SDS011;29610;49.022;12.114;2024-03-02T09:44:52;49.37;;;25.07;;
18793;SDS011;29610;49.022;12.114;2024-03-02T09:47:20;49.13;;;23.40;;
18793;SDS011;29610;49.022;12.114;2024-03-02T09:49:49;53.17;;;25.67;;
18793;SDS011;29610;49.022;12.114;2024-03-02T09:52:17;53.17;;;26.53;;
18793;SDS011;29610;49.022;12.114;2024-03-02T09:54:47;45.03;;;24.50;;
18793;SDS011;29610;49.022;12.114;2024-03-02T09:57:17;49.40;;;23.63;;
18793;SDS011;29610;49.022;12.114;2024-03-02T09:59:46;49.87;;;25.50;;
18793;SDS011;29610;49.022;12.114;2024-03-02T10:02:14;50.37;;;25.37;;
18793;SDS011;29610;49.022;12.114;2024-03-02T10:04:42;50.97;;;24.60;;
18793;SDS011;29610;49.022;12.114;2024-03-02T10:07:12;47.73;;;23.00;;
18793;SDS011;29610;49.022;12.114;2024-03-02T10:09:42;47.77;;;23.90;;
18793;SDS011;29610;49.022;12.114;2024-03-02T10:12:13;43.63;;;22.90;;
18793;SDS011;29610;49.022;12.114;2024-03-02T10:14:44;48.07;;;24.10;;
18793;SDS011;29610;49.022;12.114;2024-03-02T10:17:17;42.40;;;22.33;;
18793;SDS011;29610;49.022;12.114;2024-03-02T10:19:45;41.23;;;22.63;;
18793;SDS011;29610;49.022;12.114;2024-03-02T10:22:13;41.93;;;20.50;;
18793;SDS011;29610;49.022;12.114;2024-03-02T10:24:42;43.90;;;22.00;;
18793;SDS011;29610;49.022;12.114;2024-03-02T10:27:14;42.40;;;22.70;;
18793;SDS011;29610;49.022;12.114;2024-03-02T10:29:46;42.60;;;23.17;;
18793;SDS011;29610;49.022;12.114;2024-03-02T10:32:15;38.70;;;20.30;;
18793;SDS011;29610;49.022;12.114;2024-03-02T10:34:44;34.60;;;19.33;;
18793;SDS011;29610;49.022;12.114;2024-03-02T10:37:14;40.70;;;20.20;;
18793;SDS011;29610;49.022;12.114;2024-03-02T10:39:45;40.50;;;20.07;;
18793;SDS011;29610;49.022;12.114;2024-03-02T10:42:15;38.60;;;18.70;;
18793;SDS011;29610;49.022;12.114;2024-03-02T10:44:48;37.57;;;20.13;;
18793;SDS011;29610;49.022;12.114;2024-03-02T10:47:17;40.13;;;19.90;;
18793;SDS011;29610;49.022;12.114;2024-03-02T10:49:47;40.73;;;19.47;;
18793;SDS011;29610;49.022;12.114;2024-03-02T10:52:18;33.73;;;19.03;;
18793;SDS011;29610;49.022;12.114;2024-03-02T10:54:49;41.53;;;19.17;;
18793;SDS011;29610;49.022;12.114;2024-03-02T10:57:19;34.53;;;18.90;;
18793;SDS011;29610;49.022;12.114;2024-03-02T10:59:53;34.63;;;18.80;;
18793;SDS011;29610;49.022;12.114;2024-03-02T11:02:28;35.13;;;18.57;;
18793;SDS011;29610;49.022;12.114;2024-03-02T11:05:02;40.23;;;19.33;;
18793;SDS011;29610;49.022;12.114;2024-03-02T11:07:38;35.87;;;18.50;;
18793;SDS011;29610;49.022;12.114;2024-03-02T11:10:08;33.20;;;18.07;;
18793;SDS011;29610;49.022;12.114;2024-03-02T11:12:38;38.60;;;19.77;;
18793;SDS011;29610;49.022;12.114;2024-03-02T11:15:17;36.67;;;17.90;;
18793;SDS011;29610;49.022;12.114;2024-03-02T11:17:46;39.90;;;19.90;;
18793;SDS011;29610;49.022;12.114;2024-03-02T11:20:16;31.67;;;17.80;;
18793;SDS011;29610;49.022;12.114;2024-03-02T11:22:46;36.43;;;19.47;;
18793;SDS011;29610;49.022;12.114;2024-03-02T11:25:25;34.67;;;16.63;;
18793;SDS011;29610;49.022;12.114;2024-03-02T11:28:01;33.70;;;17.47;;
18793;SDS011;29610;49.022;12.114;2024-03-02T11:30:52;34.90;;;16.27;;
18793;SDS011;29610;49.022;12.114;2024-03-02T11:33:24;30.07;;;16.67;;
18793;SDS011;29610;49.022;12.114;2024-03-02T11:35:56;34.27;;;16.17;;
18793;SDS011;29610;49.022;12.114;2024-03-02T11:38:28;32.27;;;16.57;;
18793;SDS011;29610;49.022;12.114;2024-03-02T11:41:00;33.67;;;17.87;;
18793;SDS011;29610;49.022;12.114;2024-03-02T11:43:29;39.57;;;18.37;;
18793;SDS011;29610;49.022;12.114;2024-03-02T11:46:00;30.57;;;16.63;;
18793;SDS011;29610;49.022;12.114;2024-03-02T11:48:34;38.53;;;16.30;;
18793;SDS011;29610;49.022;12.114;2024-03-02T11:51:04;31.27;;;15.93;;
18793;SDS011;29610;49.022;12.114;2024-03-02T11:53:33;37.20;;;18.80;;
18793;SDS011;29610;49.022;12.114;2024-03-02T11:56:06;33.77;;;16.73;;
18793;SDS011;29610;49.022;12.114;2024-03-02T11:58:38;32.77;;;16.33;;
18793;SDS011;29610;49.022;12.114;2024-03-02T12:01:10;30.80;;;15.97;;
18793;SDS011;29610;49.022;12.114;2024-03-02T12:03:39;28.00;;;14.77;;
18793;SDS011;29610;49.022;12.114;2024-03-02T12:06:08;26.83;;;15.53;;
18793;SDS011;29610;49.022;12.114;2024-03-02T12:08:37;28.60;;;15.97;;
18793;SDS011;29610;49.022;12.114;2024-03-02T12:11:06;31.83;;;16.83;;
18793;SDS011;29610;49.022;12.114;2024-03-02T12:13:35;30.60;;;15.40;;
18793;SDS011;29610;49.022;12.114;2024-03-02T12:16:03;34.60;;;17.93;;
18793;SDS011;29610;49.022;12.114;2024-03-02T12:18:34;32.70;;;17.03;;
18793;SDS011;29610;49.022;12.114;2024-03-02T12:21:03;30.03;;;16.03;;
18793;SDS011;29610;49.022;12.114;2024-03-02T12:23:35;31.00;;;15.53;;
18793;SDS011;29610;49.022;12.114;2024-03-02T12:26:03;25.63;;;14.50;;
18793;SDS011;29610;49.022;12.114;2024-03-02T12:28:32;29.57;;;15.10;;
18793;SDS011;29610;49.022;12.114;2024-03-02T12:31:02;27.87;;;14.83;;
18793;SDS011;29610;49.022;12.114;2024-03-02T12:33:31;28.67;;;16.17;;
18793;SDS011;29610;49.022;12.114;2024-03-02T12:36:01;27.57;;;16.37;;
18793;SDS011;29610;49.022;12.114;2024-03-02T12:38:30;27.47;;;15.97;;
18793;SDS011;29610;49.022;12.114;2024-03-02T12:40:59;26.43;;;16.23;;
18793;SDS011;29610;49.022;12.114;2024-03-02T12:43:29;28.60;;;16.37;;
18793;SDS011;29610;49.022;12.114;2024-03-02T12:45:58;27.90;;;15.93;;
18793;SDS011;29610;49.022;12.114;2024-03-02T12:48:27;27.13;;;15.10;;
18793;SDS011;29610;49.022;12.114;2024-03-02T12:50:56;28.70;;;15.53;;
18793;SDS011;29610;49.022;12.114;2024-03-02T12:53:26;28.13;;;16.17;;
18793;SDS011;29610;49.022;12.114;2024-03-02T12:55:54;30.13;;;15.40;;
18793;SDS011;29610;49.022;12.114;2024-03-02T12:58:23;26.60;;;14.67;;
18793;SDS011;29610;49.022;12.114;2024-03-02T13:01:05;27.83;;;14.23;;
18793;SDS011;29610;49.022;12.114;2024-03-02T13:03:36;30.50;;;15.40;;
18793;SDS011;29610;49.022;12.114;2024-03-02T13:06:05;26.70;;;14.60;;
18793;SDS011;29610;49.022;12.114;2024-03-02T13:08:36;31.67;;;14.67;;
18793;SDS011;29610;49.022;12.114;2024-03-02T13:11:05;30.13;;;15.10;;
18793;SDS011;29610;49.022;12.114;2024-03-02T13:13:34;27.77;;;14.30;;
18793;SDS011;29610;49.022;12.114;2024-03-02T13:16:03;30.17;;;15.83;;
18793;SDS011;29610;49.022;12.114;2024-03-02T13:18:35;27.73;;;15.63;;
18793;SDS011;29610;49.022;12.114;2024-03-02T13:21:04;39.50;;;15.90;;
18793;SDS011;29610;49.022;12.114;2024-03-02T13:23:32;29.47;;;15.47;;
18793;SDS011;29610;49.022;12.114;2024-03-02T13:26:02;29.80;;;15.93;;
18793;SDS011;29610;49.022;12.114;2024-03-02T13:28:31;28.83;;;15.73;;
18793;SDS011;29610;49.022;12.114;2024-03-02T13:30:59;31.17;;;15.00;;
18793;SDS011;29610;49.022;12.114;2024-03-02T13:33:28;28.03;;;15.20;;
18793;SDS011;29610;49.022;12.114;2024-03-02T13:35:57;30.23;;;16.00;;
18793;SDS011;29610;49.022;12.114;2024-03-02T13:38:25;27.30;;;14.20;;
18793;SDS011;29610;49.022;12.114;2024-03-02T13:40:54;30.10;;;14.70;;
18793;SDS011;29610;49.022;12.114;2024-03-02T13:43:23;24.07;;;13.67;;
18793;SDS011;29610;49.022;12.114;2024-03-02T13:45:52;28.17;;;13.67;;
18793;SDS011;29610;49.022;12.114;2024-03-02T13:48:20;24.37;;;13.23;;
18793;SDS011;29610;49.022;12.114;2024-03-02T13:50:49;28.40;;;14.93;;
18793;SDS011;29610;49.022;12.114;2024-03-02T13:53:17;30.10;;;14.27;;
18793;SDS011;29610;49.022;12.114;2024-03-02T13:55:45;26.87;;;13.33;;
18793;SDS011;29610;49.022;12.114;2024-03-02T13:58:14;24.00;;;12.90;;
18793;SDS011;29610;49.022;12.114;2024-03-02T14:00:44;29.00;;;15.17;;
18793;SDS011;29610;49.022;12.114;2024-03-02T14:03:13;28.97;;;14.60;;
18793;SDS011;29610;49.022;12.114;2024-03-02T14:05:42;25.63;;;13.67;;
18793;SDS011;29610;49.022;12.114;2024-03-02T14:08:12;28.90;;;15.40;;
18793;SDS011;29610;49.022;12.114;2024-03-02T14:10:40;29.80;;;15.10;;
18793;SDS011;29610;49.022;12.114;2024-03-02T14:13:09;27.13;;;15.20;;
18793;SDS011;29610;49.022;12.114;2024-03-02T14:15:38;29.10;;;15.30;;
18793;SDS011;29610;49.022;12.114;2024-03-02T14:18:08;27.03;;;14.30;;
18793;SDS011;29610;49.022;12.114;2024-03-02T14:20:37;24.43;;;13.00;;
18793;SDS011;29610;49.022;12.114;2024-03-02T14:23:08;30.00;;;15.00;;
18793;SDS011;29610;49.022;12.114;2024-03-02T14:25:37;27.67;;;13.63;;
18793;SDS011;29610;49.022;12.114;2024-03-02T14:28:05;26.00;;;13.17;;
18793;SDS011;29610;49.022;12.114;2024-03-02T14:30:54;26.80;;;14.20;;